Time;durP1;ratioP1;P1;durP2;ratioP2;P2;SDS_P1;SDS_P2;PMS_P1;PMS_P2;Temp;Humidity;BMP_temperature;BMP_pressure;BME280_temperature;BME280_humidity;BME280_pressure;Samples;Min_cycle;Max_cycle;Signal;HPM_P1;HPM_P2
2021/03/01 00:02:12;;;;;;;30.23;17.38;;;3.10;99.90;;;;;;5055091;28;20055;-80
2021/03/01 00:04:39;;;;;;;28.45;17.77;;;3.20;99.90;;;;;;5022437;28;20505;-80
2021/03/01 00:07:06;;;;;;;27.65;17.27;;;3.10;99.90;;;;;;5038506;28;20044;-80
2021/03/01 00:09:33;;;;;;;31.25;17.92;;;3.10;99.90;;;;;;5022534;28;20048;-80
2021/03/01 00:11:59;;;;;;;28.77;16.95;;;3.10;99.90;;;;;;5038607;28;20522;-79
2021/03/01 00:14:26;;;;;;;24.23;15.93;;;3.10;99.90;;;;;;5021992;28;20059;-80
2021/03/01 00:16:53;;;;;;;29.42;17.77;;;3.20;99.90;;;;;;5022397;28;20044;-80
2021/03/01 00:19:20;;;;;;;29.55;17.35;;;3.20;99.90;;;;;;5022240;28;20048;-80
2021/03/01 00:21:47;;;;;;;31.50;17.95;;;3.20;99.90;;;;;;5038808;28;20061;-79
2021/03/01 00:24:13;;;;;;;28.35;16.80;;;3.20;99.90;;;;;;5022479;28;20063;-80
2021/03/01 00:26:42;;;;;;;27.10;15.85;;;3.20;99.90;;;;;;5024210;28;20396;-80
2021/03/01 00:29:10;;;;;;;31.30;18.55;;;3.20;99.90;;;;;;5026799;28;20048;-79
2021/03/01 00:31:56;;;;;;;24.43;14.57;;;3.20;99.90;;;;;;5031505;28;20434;-79
2021/03/01 00:34:23;;;;;;;29.85;17.70;;;3.20;99.90;;;;;;5025916;28;20347;-80
2021/03/01 00:36:50;;;;;;;29.00;17.58;;;3.20;99.90;;;;;;5025927;28;20143;-80
2021/03/01 00:39:17;;;;;;;31.92;17.35;;;3.20;99.90;;;;;;5026152;28;20052;-80
2021/03/01 00:41:43;;;;;;;30.60;17.77;;;3.20;99.90;;;;;;5042588;28;20087;-79
2021/03/01 00:44:10;;;;;;;30.73;17.27;;;3.20;99.90;;;;;;5025706;28;20045;-80
2021/03/01 00:46:37;;;;;;;30.70;17.50;;;3.20;99.90;;;;;;5042443;28;20048;-79
2021/03/01 00:49:04;;;;;;;31.38;17.67;;;3.20;99.90;;;;;;5025889;28;20049;-79
2021/03/01 00:51:32;;;;;;;28.33;16.48;;;3.30;99.90;;;;;;5025502;28;20057;-80
2021/03/01 00:53:59;;;;;;;29.00;17.17;;;3.30;99.90;;;;;;5025602;28;20055;-80
2021/03/01 00:56:30;;;;;;;27.17;16.75;;;3.30;99.90;;;;;;5042694;28;20041;-80
2021/03/01 00:58:57;;;;;;;30.17;17.60;;;3.30;99.90;;;;;;5025523;28;20055;-80
2021/03/01 01:01:24;;;;;;;31.63;18.40;;;3.30;99.90;;;;;;5025408;28;20071;-80
2021/03/01 01:03:51;;;;;;;30.48;16.98;;;3.40;99.90;;;;;;5025238;28;20579;-80
2021/03/01 01:06:27;;;;;;;29.67;17.17;;;3.30;99.90;;;;;;5026837;28;20080;-79
2021/03/01 01:08:54;;;;;;;32.25;17.92;;;3.40;99.90;;;;;;5024184;28;20438;-79
2021/03/01 01:11:21;;;;;;;27.05;17.00;;;3.40;99.90;;;;;;5006512;28;20049;-80
2021/03/01 01:13:47;;;;;;;30.67;17.67;;;3.40;99.90;;;;;;5005159;28;20053;-79
2021/03/01 01:16:14;;;;;;;28.08;17.50;;;3.40;99.90;;;;;;5005436;28;20414;-80
2021/03/01 01:18:41;;;;;;;29.27;18.10;;;3.50;99.90;;;;;;5021352;28;20057;-79
2021/03/01 01:21:08;;;;;;;30.65;18.20;;;3.50;99.90;;;;;;5007806;28;20044;-79
2021/03/01 01:23:35;;;;;;;28.35;17.55;;;3.50;99.90;;;;;;4992611;28;20494;-79
2021/03/01 01:26:02;;;;;;;32.13;17.60;;;3.50;99.90;;;;;;4992713;28;20048;-80
2021/03/01 01:28:28;;;;;;;33.13;17.33;;;3.50;99.90;;;;;;4992583;28;20049;-79
2021/03/01 01:30:55;;;;;;;32.63;17.70;;;3.50;99.90;;;;;;4992409;28;20048;-80
2021/03/01 01:33:22;;;;;;;33.55;16.80;;;3.50;99.90;;;;;;5008703;28;20053;-80
2021/03/01 01:35:48;;;;;;;33.08;17.80;;;3.50;99.90;;;;;;5008917;28;20146;-79
2021/03/01 01:38:15;;;;;;;30.33;16.75;;;3.50;99.90;;;;;;4991910;28;20044;-79
2021/03/01 01:40:42;;;;;;;34.33;17.00;;;3.50;99.90;;;;;;4992580;28;20060;-78
2021/03/01 01:43:09;;;;;;;34.80;18.83;;;3.60;99.90;;;;;;4992572;28;20048;-79
2021/03/01 01:45:36;;;;;;;31.63;16.48;;;3.50;99.90;;;;;;4992268;28;20048;-80
2021/03/01 01:48:03;;;;;;;31.55;17.05;;;3.60;99.90;;;;;;4992743;28;20045;-79
2021/03/01 01:50:31;;;;;;;27.38;16.50;;;3.50;99.90;;;;;;5024547;28;20055;-79
2021/03/01 01:52:57;;;;;;;26.50;15.70;;;3.60;99.90;;;;;;4992228;28;20048;-79
2021/03/01 01:55:25;;;;;;;27.88;15.43;;;3.60;99.90;;;;;;4991809;28;20056;-81
2021/03/01 01:57:54;;;;;;;28.08;15.77;;;3.70;99.90;;;;;;4989519;28;20056;-80
2021/03/01 02:03:11;;;;;;;28.88;15.77;;;3.70;99.90;;;;;;5023233;28;20071;-80
2021/03/01 02:05:38;;;;;;;28.52;16.00;;;3.70;99.90;;;;;;5037230;28;20052;-80
2021/03/01 02:08:10;;;;;;;26.13;15.77;;;3.70;99.90;;;;;;4988982;28;20049;-80
2021/03/01 02:10:46;;;;;;;28.42;17.13;;;3.70;99.90;;;;;;5004783;28;20389;-81
2021/03/01 02:13:36;;;;;;;29.17;16.40;;;3.70;99.90;;;;;;5020776;28;20360;-79
2021/03/01 02:16:15;;;;;;;28.38;15.88;;;3.70;99.90;;;;;;5020386;28;20099;-80
2021/03/01 02:18:44;;;;;;;27.35;15.75;;;3.80;99.90;;;;;;5020343;28;20099;-80
2021/03/01 02:21:11;;;;;;;24.70;15.52;;;3.80;99.90;;;;;;5003651;28;20064;-80
2021/03/01 02:23:38;;;;;;;26.70;15.20;;;3.80;99.90;;;;;;5004392;28;20450;-80
2021/03/01 02:26:15;;;;;;;22.30;12.75;;;3.90;99.90;;;;;;5012667;28;20044;-80
2021/03/01 02:28:44;;;;;;;26.83;16.10;;;3.90;99.90;;;;;;5003221;28;20045;-80
2021/03/01 02:31:11;;;;;;;28.02;15.57;;;3.90;99.90;;;;;;5019727;28;20114;-80
2021/03/01 02:33:43;;;;;;;30.65;16.83;;;3.90;99.90;;;;;;5003554;28;20099;-79
2021/03/01 02:36:35;;;;;;;29.55;15.98;;;3.90;99.90;;;;;;5004906;28;20056;-80
2021/03/01 02:39:04;;;;;;;27.35;16.13;;;3.80;99.90;;;;;;5003819;28;20044;-80
2021/03/01 02:41:31;;;;;;;28.58;16.40;;;3.80;99.90;;;;;;5020346;28;20045;-80
2021/03/01 02:43:57;;;;;;;27.42;15.73;;;3.80;99.90;;;;;;5003743;28;20041;-81
2021/03/01 02:46:24;;;;;;;26.10;15.40;;;3.80;99.90;;;;;;4987922;28;20060;-80
2021/03/01 02:48:51;;;;;;;27.00;15.70;;;3.80;99.90;;;;;;5003089;28;20053;-81
2021/03/01 02:51:18;;;;;;;24.30;15.80;;;3.80;99.90;;;;;;5004243;28;20045;-80
2021/03/01 02:53:44;;;;;;;26.58;14.77;;;3.80;99.90;;;;;;5003995;28;20048;-80
2021/03/01 02:56:12;;;;;;;31.35;15.68;;;3.90;99.90;;;;;;5003449;28;20063;-80
2021/03/01 02:58:39;;;;;;;24.10;13.85;;;3.90;99.90;;;;;;4987635;28;20049;-80
2021/03/01 03:01:06;;;;;;;27.02;15.70;;;3.90;99.90;;;;;;5003667;28;20049;-80
2021/03/01 03:03:33;;;;;;;25.08;15.82;;;3.90;99.90;;;;;;5003576;28;20144;-81
2021/03/01 03:06:00;;;;;;;26.40;15.80;;;3.80;99.90;;;;;;5003615;28;20056;-80
2021/03/01 03:08:32;;;;;;;24.55;14.23;;;3.80;99.90;;;;;;5003484;28;20041;-81
2021/03/01 03:10:59;;;;;;;26.15;14.75;;;3.90;99.90;;;;;;5019566;28;20045;-80
2021/03/01 03:13:26;;;;;;;25.30;15.23;;;3.80;99.90;;;;;;5003372;28;20135;-80
2021/03/01 03:15:54;;;;;;;28.15;15.02;;;3.80;99.90;;;;;;4987320;28;20476;-81
2021/03/01 03:18:22;;;;;;;24.63;14.50;;;3.90;99.90;;;;;;5003872;28;20045;-82
2021/03/01 03:20:49;;;;;;;24.73;14.10;;;3.90;99.90;;;;;;5003782;28;20048;-79
2021/03/01 03:23:16;;;;;;;22.40;13.85;;;3.80;99.90;;;;;;5003121;28;20049;-80
2021/03/01 03:25:43;;;;;;;24.17;13.82;;;3.90;99.90;;;;;;5003274;28;20483;-80
2021/03/01 03:28:10;;;;;;;23.33;13.82;;;3.90;99.90;;;;;;4987673;28;20447;-80
2021/03/01 03:30:37;;;;;;;26.10;14.48;;;3.90;99.90;;;;;;4987089;28;20049;-80
2021/03/01 03:33:04;;;;;;;23.00;13.68;;;3.90;99.90;;;;;;5003123;28;20049;-80
2021/03/01 03:35:31;;;;;;;22.73;13.80;;;4.00;99.90;;;;;;5003060;28;20081;-80
2021/03/01 03:38:07;;;;;;;21.08;12.60;;;3.90;99.90;;;;;;5003228;28;20454;-80
2021/03/01 03:40:34;;;;;;;21.85;13.30;;;4.00;99.90;;;;;;5019229;28;20507;-79
2021/03/01 03:43:02;;;;;;;25.10;14.10;;;4.00;99.90;;;;;;5002690;28;20060;-80
2021/03/01 03:45:28;;;;;;;21.52;12.73;;;4.00;99.90;;;;;;5003280;28;20053;-79
2021/03/01 03:47:58;;;;;;;23.73;13.40;;;4.00;99.90;;;;;;5003182;28;20049;-80
2021/03/01 03:50:25;;;;;;;23.85;14.40;;;4.00;99.90;;;;;;4987115;28;20080;-80
2021/03/01 03:52:58;;;;;;;24.73;14.55;;;3.90;99.90;;;;;;5018994;28;20041;-81
2021/03/01 03:55:26;;;;;;;25.88;14.73;;;3.90;99.90;;;;;;4986878;28;20041;-80
2021/03/01 03:57:59;;;;;;;27.75;15.18;;;3.90;99.90;;;;;;4986951;28;20118;-80
2021/03/01 04:00:26;;;;;;;26.92;16.70;;;3.90;99.90;;;;;;5003404;28;20053;-80
2021/03/01 04:02:55;;;;;;;26.00;16.42;;;3.90;99.90;;;;;;5018948;28;20097;-80
2021/03/01 04:05:23;;;;;;;28.25;16.20;;;3.80;99.90;;;;;;4987016;28;20557;-80
2021/03/01 04:07:49;;;;;;;32.60;18.65;;;3.80;99.90;;;;;;4986713;28;20049;-80
2021/03/01 04:10:16;;;;;;;30.13;17.80;;;3.80;99.90;;;;;;5002872;28;20049;-80
2021/03/01 04:12:44;;;;;;;28.48;18.58;;;3.80;99.90;;;;;;5002774;28;20476;-79
2021/03/01 04:15:13;;;;;;;29.83;17.73;;;3.80;99.90;;;;;;4999052;28;20061;-80
2021/03/01 04:17:41;;;;;;;29.75;19.63;;;3.80;99.90;;;;;;4983316;28;20071;-80
2021/03/01 04:20:09;;;;;;;30.70;17.48;;;3.90;99.90;;;;;;4999473;28;20077;-80
2021/03/01 04:22:37;;;;;;;27.67;17.42;;;3.90;99.90;;;;;;4983066;28;20169;-80
2021/03/01 04:25:04;;;;;;;29.08;18.00;;;3.90;99.90;;;;;;4999840;28;20084;-80
2021/03/01 04:27:31;;;;;;;32.65;17.48;;;3.90;99.90;;;;;;4982946;28;20049;-80
2021/03/01 04:29:58;;;;;;;27.50;16.05;;;3.80;99.90;;;;;;5015399;28;20059;-80
2021/03/01 04:32:24;;;;;;;34.40;19.88;;;3.90;99.90;;;;;;4982815;28;20049;-80
2021/03/01 04:34:52;;;;;;;35.80;19.77;;;3.90;99.90;;;;;;5015106;28;20049;-80
2021/03/01 04:37:18;;;;;;;31.00;19.00;;;3.90;99.90;;;;;;4999223;28;20060;-79
2021/03/01 04:39:45;;;;;;;35.22;18.80;;;3.90;99.90;;;;;;4999158;28;20504;-79
2021/03/01 04:42:12;;;;;;;35.58;20.90;;;3.80;99.90;;;;;;4999183;28;20041;-80
2021/03/01 04:44:56;;;;;;;36.45;20.63;;;3.80;99.90;;;;;;4972033;28;20053;-80
2021/03/01 04:47:27;;;;;;;36.22;20.90;;;3.80;99.90;;;;;;4982814;28;20045;-80
2021/03/01 04:49:54;;;;;;;41.08;22.00;;;3.80;99.90;;;;;;4999193;28;20056;-80
2021/03/01 04:52:20;;;;;;;41.42;22.52;;;3.80;99.90;;;;;;4998839;28;20049;-80
2021/03/01 04:54:48;;;;;;;38.47;20.60;;;3.80;99.90;;;;;;5015324;28;20058;-80
2021/03/01 04:57:15;;;;;;;44.88;23.25;;;3.80;99.90;;;;;;4982829;28;20500;-79
2021/03/01 04:59:44;;;;;;;46.47;24.20;;;3.80;99.90;;;;;;4983758;28;20068;-80
2021/03/01 05:02:10;;;;;;;46.83;23.00;;;3.80;99.90;;;;;;4999237;28;20123;-80
2021/03/01 05:04:37;;;;;;;48.25;24.23;;;3.70;99.90;;;;;;4998880;28;20050;-80
2021/03/01 05:07:04;;;;;;;45.90;23.35;;;3.70;99.90;;;;;;4982849;28;20053;-80
2021/03/01 05:09:31;;;;;;;44.25;23.23;;;3.70;99.90;;;;;;4999053;28;20042;-80
2021/03/01 05:11:58;;;;;;;45.40;23.00;;;3.70;99.90;;;;;;4998985;28;20058;-80
2021/03/01 05:14:24;;;;;;;52.05;24.95;;;3.70;99.90;;;;;;5002044;28;20084;-80
2021/03/01 05:16:51;;;;;;;53.13;23.63;;;3.70;99.90;;;;;;5018892;28;20053;-81
2021/03/01 05:19:18;;;;;;;48.28;23.35;;;3.70;99.90;;;;;;5002395;28;20064;-79
2021/03/01 05:21:45;;;;;;;48.47;24.38;;;3.70;99.90;;;;;;5002019;28;20060;-80
2021/03/01 05:24:11;;;;;;;45.05;23.17;;;3.60;99.90;;;;;;5018892;28;20061;-80
2021/03/01 05:26:38;;;;;;;46.42;24.55;;;3.60;99.90;;;;;;4986031;28;20046;-80
2021/03/01 05:29:05;;;;;;;44.35;23.85;;;3.60;99.90;;;;;;4985830;28;20076;-80
2021/03/01 05:31:32;;;;;;;49.58;23.25;;;3.60;99.90;;;;;;5002345;28;20071;-79
2021/03/01 05:33:58;;;;;;;51.42;23.65;;;3.60;99.90;;;;;;4985618;28;20128;-80
2021/03/01 05:36:25;;;;;;;52.95;24.50;;;3.60;99.90;;;;;;4986082;28;20072;-80
2021/03/01 05:38:52;;;;;;;41.50;22.25;;;3.60;99.90;;;;;;4986188;28;20099;-80
2021/03/01 05:41:19;;;;;;;42.90;22.23;;;3.60;99.90;;;;;;5018185;28;20053;-80
2021/03/01 05:43:47;;;;;;;50.75;23.80;;;3.60;99.90;;;;;;5002109;28;20552;-79
2021/03/01 05:46:15;;;;;;;53.97;23.40;;;3.60;99.90;;;;;;4986021;28;20064;-79
2021/03/01 05:48:42;;;;;;;44.33;21.65;;;3.70;99.90;;;;;;5018255;28;20511;-79
2021/03/01 05:51:09;;;;;;;45.65;22.67;;;3.70;99.90;;;;;;5001596;28;20488;-80
2021/03/01 05:53:45;;;;;;;52.78;25.13;;;3.60;99.90;;;;;;5002329;28;20057;-80
2021/03/01 05:56:21;;;;;;;46.97;23.10;;;3.70;99.90;;;;;;4993837;28;20514;-82
2021/03/01 05:58:50;;;;;;;49.00;23.63;;;3.70;99.90;;;;;;4988318;28;20064;-80
2021/03/01 06:01:16;;;;;;;48.80;23.55;;;3.70;99.90;;;;;;4973180;28;20052;-80
2021/03/01 06:03:43;;;;;;;51.47;23.25;;;3.70;99.90;;;;;;4972613;28;20064;-80
2021/03/01 06:06:12;;;;;;;53.47;23.52;;;3.70;99.90;;;;;;4972815;28;20077;-80
2021/03/01 06:08:39;;;;;;;49.88;23.33;;;3.70;99.90;;;;;;4989446;28;20052;-80
2021/03/01 06:11:10;;;;;;;41.65;22.00;;;3.70;99.90;;;;;;4974166;28;20488;-80
2021/03/01 06:13:36;;;;;;;45.42;21.42;;;3.70;99.90;;;;;;4974806;28;20056;-80
2021/03/01 06:16:04;;;;;;;48.65;23.05;;;3.80;99.90;;;;;;5008114;28;20434;-80
2021/03/01 06:18:31;;;;;;;43.00;21.92;;;3.80;99.90;;;;;;5008268;28;20110;-80
2021/03/01 06:21:12;;;;;;;50.70;21.85;;;3.80;99.90;;;;;;4992041;28;20045;-80
2021/03/01 06:23:40;;;;;;;44.47;23.75;;;3.80;99.90;;;;;;4991240;28;20071;-80
2021/03/01 06:26:28;;;;;;;43.03;21.05;;;3.80;99.90;;;;;;5007841;28;20044;-79
2021/03/01 06:29:04;;;;;;;48.67;23.45;;;3.80;99.90;;;;;;5007830;28;20408;-80
2021/03/01 06:31:33;;;;;;;44.45;21.85;;;3.80;99.90;;;;;;5024087;28;20515;-80
2021/03/01 06:34:24;;;;;;;45.03;22.15;;;3.90;99.90;;;;;;5056859;28;20048;-79
2021/03/01 06:37:12;;;;;;;42.63;22.40;;;3.90;99.90;;;;;;5023386;28;20079;-81
2021/03/01 06:39:49;;;;;;;42.95;21.98;;;3.90;99.90;;;;;;5023481;28;20071;-80
2021/03/01 06:42:21;;;;;;;50.97;24.02;;;3.90;99.90;;;;;;4991242;28;20098;-79
2021/03/01 06:45:01;;;;;;;47.70;22.90;;;3.90;99.90;;;;;;5040330;28;20056;-80
2021/03/01 06:47:50;;;;;;;59.03;23.63;;;3.90;99.90;;;;;;5030708;28;20049;-79
2021/03/01 06:50:31;;;;;;;49.47;23.23;;;3.90;99.90;;;;;;5028101;28;20051;-81
2021/03/01 06:53:15;;;;;;;47.03;21.08;;;3.90;99.90;;;;;;5030954;28;20121;-79
2021/03/01 06:55:56;;;;;;;51.17;23.20;;;3.90;99.90;;;;;;5027128;28;20063;-81
2021/03/01 06:58:25;;;;;;;42.50;21.23;;;4.00;99.90;;;;;;5023555;28;20055;-82
2021/03/01 07:00:58;;;;;;;46.88;23.15;;;3.90;99.90;;;;;;5023294;28;20080;-79
2021/03/01 07:03:25;;;;;;;44.30;22.75;;;4.00;99.90;;;;;;5007473;28;20052;-79
2021/03/01 07:05:56;;;;;;;47.15;23.40;;;4.00;99.90;;;;;;4990538;28;20570;-79
2021/03/01 07:08:48;;;;;;;45.72;23.20;;;4.00;99.90;;;;;;5006455;28;20072;-79
2021/03/01 07:11:22;;;;;;;50.45;23.23;;;4.10;99.90;;;;;;5022787;28;20045;-79
2021/03/01 07:13:58;;;;;;;43.80;22.08;;;4.10;99.90;;;;;;5019736;28;20499;-79
2021/03/01 07:16:26;;;;;;;47.70;23.67;;;4.10;99.90;;;;;;5003314;28;20072;-79
2021/03/01 07:18:54;;;;;;;40.90;20.88;;;4.10;99.90;;;;;;4992982;28;20037;-79
2021/03/01 07:21:21;;;;;;;48.90;22.65;;;4.20;99.90;;;;;;4999541;28;20153;-80
2021/03/01 07:23:48;;;;;;;39.85;22.50;;;4.20;99.90;;;;;;5003729;28;20045;-79
2021/03/01 07:26:23;;;;;;;47.95;25.15;;;4.20;99.90;;;;;;4973714;28;20060;-80
2021/03/01 07:28:51;;;;;;;46.10;21.67;;;4.20;99.90;;;;;;5001617;28;20507;-80
2021/03/01 07:31:19;;;;;;;41.30;21.05;;;4.20;99.90;;;;;;5019061;28;20045;-79
2021/03/01 07:33:46;;;;;;;42.55;21.23;;;4.20;99.90;;;;;;5002289;28;20053;-79
2021/03/01 07:36:14;;;;;;;43.50;22.23;;;4.30;99.90;;;;;;5031386;28;20140;-79
2021/03/01 07:38:41;;;;;;;42.30;21.50;;;4.20;99.90;;;;;;4981447;28;20132;-79
2021/03/01 07:41:08;;;;;;;45.72;20.95;;;4.30;99.90;;;;;;4997323;28;20053;-78
2021/03/01 07:43:36;;;;;;;41.95;21.08;;;4.30;99.90;;;;;;4982449;28;20050;-78
2021/03/01 07:46:03;;;;;;;39.38;21.23;;;4.30;99.90;;;;;;4988826;28;20037;-80
2021/03/01 07:48:35;;;;;;;42.28;22.38;;;4.30;99.90;;;;;;5001973;28;20136;-78
2021/03/01 07:51:02;;;;;;;38.13;20.17;;;4.30;99.90;;;;;;4993588;28;20115;-78
2021/03/01 07:53:46;;;;;;;41.90;22.10;;;4.40;99.90;;;;;;4983036;28;20405;-79
2021/03/01 07:56:38;;;;;;;40.97;20.52;;;4.40;99.90;;;;;;4999150;28;20576;-79
2021/03/01 07:59:09;;;;;;;42.25;22.05;;;4.50;99.90;;;;;;5019466;28;20072;-79
2021/03/01 08:01:36;;;;;;;41.08;22.27;;;4.50;99.90;;;;;;5010615;28;20140;-79
2021/03/01 08:04:04;;;;;;;41.30;19.95;;;4.60;99.90;;;;;;5018134;28;20052;-79
2021/03/01 08:06:53;;;;;;;40.53;21.02;;;4.60;99.90;;;;;;5000817;28;20045;-78
2021/03/01 08:09:48;;;;;;;41.40;23.10;;;4.70;99.90;;;;;;5021749;28;20496;-81
2021/03/01 08:12:33;;;;;;;36.78;18.77;;;4.80;99.90;;;;;;5000135;28;20416;-78
2021/03/01 08:15:05;;;;;;;38.65;20.30;;;4.90;99.90;;;;;;5045592;28;20500;-80
2021/03/01 08:17:38;;;;;;;42.45;20.23;;;4.90;99.90;;;;;;5016249;28;20136;-79
2021/03/01 08:20:15;;;;;;;41.78;20.40;;;4.90;99.90;;;;;;5029605;28;20445;-80
2021/03/01 08:23:09;;;;;;;41.42;20.40;;;4.90;99.90;;;;;;5049011;28;20067;-80
2021/03/01 08:25:46;;;;;;;36.55;19.08;;;4.90;99.90;;;;;;5029386;28;20137;-81
2021/03/01 08:28:16;;;;;;;37.92;19.83;;;4.90;99.90;;;;;;5035391;28;20136;-80
2021/03/01 08:30:54;;;;;;;36.33;19.38;;;4.90;99.90;;;;;;5034059;28;20037;-79
2021/03/01 08:33:25;;;;;;;38.75;19.30;;;4.90;99.90;;;;;;5002985;28;20052;-80
2021/03/01 08:36:01;;;;;;;41.08;20.10;;;4.90;99.90;;;;;;5027922;28;20512;-80
2021/03/01 08:38:43;;;;;;;41.28;18.48;;;4.90;99.90;;;;;;5034005;28;20041;-79
2021/03/01 08:41:10;;;;;;;35.10;16.63;;;5.00;99.90;;;;;;5034180;28;20056;-78
2021/03/01 08:43:40;;;;;;;41.17;19.15;;;5.00;99.90;;;;;;4986063;28;20130;-81
2021/03/01 08:46:16;;;;;;;39.20;19.23;;;5.00;99.90;;;;;;5002124;28;20045;-78
2021/03/01 08:48:44;;;;;;;;;;;5.00;99.90;;;;;;5008783;28;20049;-78
2021/03/01 08:51:11;;;;;;;37.75;19.08;;;5.00;99.90;;;;;;5022092;28;19928;-79
2021/03/01 08:53:38;;;;;;;39.10;19.88;;;5.00;99.90;;;;;;4989759;28;20103;-79
2021/03/01 08:56:23;;;;;;;40.25;19.15;;;5.00;99.90;;;;;;5023013;28;20060;-79
2021/03/01 08:58:50;;;;;;;30.30;16.95;;;5.10;99.90;;;;;;4989736;28;20045;-81
2021/03/01 09:01:20;;;;;;;32.55;17.23;;;5.10;99.90;;;;;;4989556;28;20044;-79
2021/03/01 09:03:47;;;;;;;42.15;17.90;;;5.10;99.90;;;;;;4989670;28;20052;-78
2021/03/01 09:06:18;;;;;;;34.22;17.27;;;5.10;99.90;;;;;;4989553;28;20140;-79
2021/03/01 09:08:49;;;;;;;35.05;19.38;;;5.10;99.90;;;;;;5006161;28;20076;-79
2021/03/01 09:11:19;;;;;;;33.63;17.35;;;5.10;99.90;;;;;;5005599;28;20147;-79
2021/03/01 09:13:47;;;;;;;36.88;18.92;;;5.10;99.90;;;;;;5021871;28;20143;-78
2021/03/01 09:16:23;;;;;;;35.80;18.35;;;5.20;99.90;;;;;;5021556;28;20056;-79
2021/03/01 09:18:51;;;;;;;32.80;16.92;;;5.20;99.90;;;;;;5007177;28;20416;-79
2021/03/01 09:21:19;;;;;;;32.85;17.30;;;5.20;99.90;;;;;;4989300;28;20068;-79
2021/03/01 09:23:50;;;;;;;31.60;15.93;;;5.20;99.90;;;;;;4989699;28;20041;-79
2021/03/01 09:26:38;;;;;;;28.88;16.08;;;5.20;99.90;;;;;;4989583;28;20067;-79
2021/03/01 09:29:18;;;;;;;27.48;16.42;;;5.20;99.90;;;;;;5005315;28;20052;-79
2021/03/01 09:31:51;;;;;;;33.25;16.25;;;5.20;99.90;;;;;;5021080;28;20041;-78
2021/03/01 09:34:18;;;;;;;29.42;14.30;;;5.20;99.90;;;;;;5017967;28;20057;-78
2021/03/01 09:37:05;;;;;;;25.73;14.57;;;5.30;99.90;;;;;;5003531;28;20522;-78
2021/03/01 09:39:37;;;;;;;24.98;14.32;;;5.30;99.90;;;;;;5005080;28;20041;-79
2021/03/01 09:42:04;;;;;;;25.10;15.27;;;5.30;99.90;;;;;;5006515;28;20057;-79
2021/03/01 09:44:32;;;;;;;23.55;13.68;;;5.30;99.90;;;;;;4988870;28;20045;-79
2021/03/01 09:46:59;;;;;;;23.67;13.65;;;5.30;99.90;;;;;;5005326;28;20056;-79
2021/03/01 09:49:29;;;;;;;26.17;14.02;;;5.30;99.90;;;;;;5005059;28;20456;-78
2021/03/01 09:51:56;;;;;;;26.23;14.75;;;5.30;99.90;;;;;;4988812;28;20041;-78
2021/03/01 09:54:23;;;;;;;26.42;14.30;;;5.40;99.90;;;;;;5004767;28;20053;-81
2021/03/01 09:56:55;;;;;;;27.05;14.77;;;5.40;99.90;;;;;;5001937;28;20077;-79
2021/03/01 09:59:32;;;;;;;28.98;15.55;;;5.40;99.90;;;;;;5036961;28;20054;-79
2021/03/01 10:02:19;;;;;;;31.35;16.75;;;5.40;99.90;;;;;;5021532;28;20107;-79
2021/03/01 10:04:47;;;;;;;34.10;16.50;;;5.40;99.90;;;;;;5037887;28;20061;-79
2021/03/01 10:07:34;;;;;;;27.58;14.38;;;5.40;99.90;;;;;;5009616;28;20045;-78
2021/03/01 10:10:13;;;;;;;24.60;13.35;;;5.50;99.90;;;;;;5004279;28;20056;-79
2021/03/01 10:12:48;;;;;;;21.80;12.95;;;5.50;99.90;;;;;;5004825;28;20057;-78
2021/03/01 10:15:19;;;;;;;25.38;14.15;;;5.40;99.90;;;;;;5008814;28;20056;-79
2021/03/01 10:17:46;;;;;;;24.20;15.30;;;5.50;99.90;;;;;;5044148;28;20051;-78
2021/03/01 10:20:14;;;;;;;30.05;15.45;;;5.50;99.90;;;;;;5027405;28;20093;-81
2021/03/01 10:22:57;;;;;;;26.73;14.90;;;5.60;99.90;;;;;;5028301;28;20058;-78
2021/03/01 10:25:36;;;;;;;27.88;14.60;;;5.60;99.90;;;;;;5012730;28;20143;-80
2021/03/01 10:28:22;;;;;;;24.15;14.23;;;5.60;99.90;;;;;;5008118;28;20079;-78
2021/03/01 10:31:10;;;;;;;24.45;13.65;;;5.60;99.90;;;;;;5025190;28;20056;-80
2021/03/01 10:34:01;;;;;;;27.65;16.05;;;5.60;99.90;;;;;;5036150;28;20052;-79
2021/03/01 10:36:47;;;;;;;22.75;14.82;;;5.60;99.90;;;;;;5023745;28;20376;-80
2021/03/01 10:39:20;;;;;;;23.23;13.55;;;5.60;99.90;;;;;;5025335;28;20041;-80
2021/03/01 10:41:53;;;;;;;25.48;15.30;;;5.60;99.90;;;;;;4991953;28;20466;-80
2021/03/01 10:44:28;;;;;;;23.60;13.93;;;5.60;99.90;;;;;;5007817;28;20048;-79
2021/03/01 10:46:55;;;;;;;21.65;13.82;;;5.60;99.90;;;;;;4991210;28;20127;-79
2021/03/01 10:49:34;;;;;;;26.05;13.88;;;5.60;99.90;;;;;;4990945;28;20083;-80
2021/03/01 10:52:00;;;;;;;28.35;15.82;;;5.60;99.90;;;;;;5006585;28;20049;-79
2021/03/01 10:54:27;;;;;;;28.38;16.65;;;5.60;99.90;;;;;;5022822;28;20055;-80
2021/03/01 10:56:54;;;;;;;25.75;13.95;;;5.60;99.90;;;;;;5003394;28;20050;-79
2021/03/01 10:59:21;;;;;;;23.67;13.68;;;5.60;99.90;;;;;;5022716;28;20140;-80
2021/03/01 11:01:48;;;;;;;25.73;14.75;;;5.60;99.90;;;;;;5006732;28;20048;-79
2021/03/01 11:04:16;;;;;;;29.70;15.77;;;5.60;99.90;;;;;;5007014;28;20083;-79
2021/03/01 11:06:45;;;;;;;23.02;14.13;;;5.60;99.90;;;;;;4990882;28;20044;-79
2021/03/01 11:09:12;;;;;;;24.85;15.05;;;5.70;99.90;;;;;;4990871;28;20056;-80
2021/03/01 11:11:39;;;;;;;23.27;13.73;;;5.70;99.90;;;;;;5022195;28;20062;-80
2021/03/01 11:14:07;;;;;;;25.70;14.80;;;5.70;99.90;;;;;;5002913;28;20057;-79
2021/03/01 11:16:33;;;;;;;25.05;14.02;;;5.70;99.90;;;;;;5019480;28;20099;-79
2021/03/01 11:19:01;;;;;;;24.73;14.05;;;5.70;99.90;;;;;;4995848;28;20106;-79
2021/03/01 11:21:28;;;;;;;23.83;14.38;;;5.70;99.90;;;;;;5003129;28;20053;-79
2021/03/01 11:23:55;;;;;;;25.70;14.98;;;5.70;99.90;;;;;;5018842;28;20051;-79
2021/03/01 11:26:21;;;;;;;22.27;14.35;;;5.80;99.90;;;;;;5015481;28;20085;-79
2021/03/01 11:28:56;;;;;;;22.77;13.50;;;5.90;99.90;;;;;;5020071;28;20519;-80
2021/03/01 11:31:23;;;;;;;21.38;14.00;;;5.90;99.90;;;;;;5002108;28;20051;-80
2021/03/01 11:33:50;;;;;;;22.58;13.48;;;5.90;99.90;;;;;;5019228;28;20455;-79
2021/03/01 11:36:17;;;;;;;25.23;14.20;;;5.90;99.90;;;;;;5019294;28;20415;-79
2021/03/01 11:38:44;;;;;;;24.88;14.98;;;5.90;99.90;;;;;;4986873;28;20041;-79
2021/03/01 11:41:15;;;;;;;19.90;13.18;;;5.90;99.90;;;;;;5003223;28;20048;-78
2021/03/01 11:43:48;;;;;;;21.83;14.55;;;5.90;99.90;;;;;;4992721;28;20056;-79
2021/03/01 11:46:15;;;;;;;23.05;14.35;;;5.90;99.90;;;;;;5017122;28;20060;-79
2021/03/01 11:48:47;;;;;;;22.55;13.07;;;6.00;99.90;;;;;;5001881;28;20040;-80
2021/03/01 11:51:14;;;;;;;21.55;13.88;;;6.00;99.90;;;;;;5025087;28;20059;-80
2021/03/01 11:53:44;;;;;;;25.80;14.85;;;6.00;99.90;;;;;;5001998;28;20071;-79
2021/03/01 11:56:11;;;;;;;27.65;13.90;;;6.00;99.90;;;;;;5010710;28;20057;-80
2021/03/01 11:58:38;;;;;;;21.17;11.48;;;6.00;99.90;;;;;;5001779;28;20069;-80
2021/03/01 12:01:06;;;;;;;23.55;14.15;;;6.00;99.90;;;;;;5014996;28;20049;-79
2021/03/01 12:03:34;;;;;;;20.35;12.38;;;6.00;99.90;;;;;;4983404;28;20492;-79
2021/03/01 12:06:02;;;;;;;20.23;12.90;;;6.10;99.90;;;;;;4983545;28;20516;-79
2021/03/01 12:08:29;;;;;;;25.20;14.00;;;6.10;99.90;;;;;;4993384;28;20571;-81
2021/03/01 12:10:59;;;;;;;24.13;13.00;;;6.10;99.90;;;;;;5002191;28;20519;-80
2021/03/01 12:13:26;;;;;;;22.10;13.48;;;6.10;99.90;;;;;;5018902;28;20056;-80
2021/03/01 12:15:53;;;;;;;23.33;12.45;;;6.10;99.90;;;;;;5005581;28;20098;-80
2021/03/01 12:18:20;;;;;;;20.02;12.95;;;6.10;99.90;;;;;;5021635;28;20091;-79
2021/03/01 12:20:49;;;;;;;23.85;12.38;;;6.20;99.90;;;;;;5005599;28;20039;-80
2021/03/01 12:23:15;;;;;;;23.52;12.88;;;6.10;99.90;;;;;;5021278;28;20053;-80
2021/03/01 12:25:42;;;;;;;22.80;13.32;;;6.20;99.90;;;;;;5022584;28;20080;-80
2021/03/01 12:28:09;;;;;;;21.33;12.68;;;6.20;99.90;;;;;;5022572;28;20070;-80
2021/03/01 12:30:36;;;;;;;26.17;13.13;;;6.20;99.90;;;;;;5006215;28;20049;-79
2021/03/01 12:33:03;;;;;;;24.77;12.68;;;6.20;99.90;;;;;;5022674;28;20056;-80
2021/03/01 12:35:31;;;;;;;19.98;12.82;;;6.30;99.90;;;;;;5038449;28;20454;-79
2021/03/01 12:37:59;;;;;;;22.33;13.05;;;6.20;99.90;;;;;;5006164;28;20052;-79
2021/03/01 12:40:26;;;;;;;31.17;16.83;;;6.20;99.90;;;;;;5005716;28;20052;-79
2021/03/01 12:42:53;;;;;;;21.27;12.05;;;6.30;99.90;;;;;;5021815;28;20052;-79
2021/03/01 12:45:21;;;;;;;24.73;14.15;;;6.30;99.90;;;;;;5038715;28;20049;-79
2021/03/01 12:47:48;;;;;;;21.77;12.55;;;6.30;99.90;;;;;;5025605;28;20054;-79
2021/03/01 12:50:15;;;;;;;18.90;12.93;;;6.40;99.90;;;;;;5025362;28;20083;-79
2021/03/01 12:52:42;;;;;;;18.67;11.73;;;6.40;99.90;;;;;;5031654;28;20106;-79
2021/03/01 12:55:09;;;;;;;23.67;13.60;;;6.50;99.90;;;;;;5005398;28;20143;-80
2021/03/01 12:57:36;;;;;;;20.77;11.85;;;6.50;99.90;;;;;;5015608;28;20037;-79